Time;durP1;ratioP1;P1;durP2;ratioP2;P2;SDS_P1;SDS_P2;PMS_P1;PMS_P2;Temp;Humidity;BMP_temperature;BMP_pressure;BME280_temperature;BME280_humidity;BME280_pressure;Samples;Min_cycle;Max_cycle;Signal;HPM_P1;HPM_P2
2023/03/28 00:01:43;;;;;;;8.07;1.70;;;;;;;1.74;100.00;-18074.38;4951405;28;20053;-83
2023/03/28 00:04:10;;;;;;;13.95;3.13;;;;;;;1.79;100.00;-18075.78;4951428;28;20043;-83
2023/03/28 00:06:40;;;;;;;8.20;2.20;;;;;;;1.76;100.00;-18074.94;4953372;28;20047;-83
2023/03/28 00:09:06;;;;;;;5.10;1.75;;;;;;;1.70;100.00;-18073.41;4951419;28;20059;-83
2023/03/28 00:11:32;;;;;;;6.72;1.88;;;;;;;1.73;100.00;-18074.13;4950161;28;20363;-83
2023/03/28 00:13:59;;;;;;;8.95;1.80;;;;;;;1.78;100.00;-18075.63;4948108;28;20036;-82
2023/03/28 00:16:32;;;;;;;7.88;1.83;;;;;;;1.74;100.00;-18074.53;4953941;28;20415;-80
2023/03/28 00:18:59;;;;;;;10.73;1.80;;;;;;;1.72;100.00;-18073.84;4951720;28;20101;-83
2023/03/28 00:21:33;;;;;;;8.80;1.40;;;;;;;1.72;100.00;-18073.97;4953204;28;20434;-80
2023/03/28 00:24:01;;;;;;;10.40;2.40;;;;;;;1.73;100.00;-18074.13;4954011;28;20106;-82
2023/03/28 00:26:29;;;;;;;6.85;1.85;;;;;;;1.70;100.00;-18073.28;4955403;28;20047;-82
2023/03/28 00:28:55;;;;;;;7.65;2.47;;;;;;;1.67;100.00;-18072.59;4951756;28;20114;-82
2023/03/28 00:31:22;;;;;;;11.80;2.13;;;;;;;1.70;100.00;-18073.28;4953302;28;20035;-82
2023/03/28 00:33:48;;;;;;;7.30;1.92;;;;;;;1.66;100.00;-18072.31;4956952;28;20036;-82
2023/03/28 00:36:17;;;;;;;8.73;2.00;;;;;;;1.63;100.00;-18071.34;4957700;28;20046;-82
2023/03/28 00:38:44;;;;;;;11.80;2.35;;;;;;;1.66;100.00;-18072.31;4947555;28;20054;-83
2023/03/28 00:41:10;;;;;;;9.40;1.90;;;;;;;1.60;100.00;-18070.50;4946601;28;20047;-82
2023/03/28 00:43:39;;;;;;;10.38;2.22;;;;;;;1.61;100.00;-18070.78;4950922;28;20078;-82
2023/03/28 00:46:13;;;;;;;15.50;2.60;;;;;;;1.60;100.00;-18070.50;4949541;28;20043;-83
2023/03/28 00:49:01;;;;;;;9.50;1.67;;;;;;;1.55;100.00;-18069.41;4951399;28;20069;-82
2023/03/28 00:51:32;;;;;;;9.00;2.15;;;;;;;1.59;100.00;-18070.38;4950470;28;20062;-82
2023/03/28 00:54:00;;;;;;;7.47;2.55;;;;;;;1.53;100.00;-18068.72;4957450;28;20097;-83
2023/03/28 00:56:31;;;;;;;7.18;1.98;;;;;;;1.56;100.00;-18069.53;4952577;28;20045;-82
2023/03/28 00:58:57;;;;;;;12.65;2.55;;;;;;;1.50;100.00;-18068.03;4952982;28;20055;-81
2023/03/28 01:01:23;;;;;;;11.43;2.70;;;;;;;1.48;100.00;-18067.34;4964684;28;20208;-83
2023/03/28 01:04:01;;;;;;;10.38;1.95;;;;;;;1.47;100.00;-18067.19;4950452;28;20058;-83
2023/03/28 01:06:28;;;;;;;10.10;2.80;;;;;;;1.47;100.00;-18067.19;4947931;28;20462;-83
2023/03/28 01:08:55;;;;;;;5.35;2.05;;;;;;;1.42;100.00;-18065.81;4952752;28;20043;-83
2023/03/28 01:11:23;;;;;;;14.00;2.80;;;;;;;1.43;100.00;-18066.09;4950873;28;20502;-83
2023/03/28 01:13:51;;;;;;;5.03;1.98;;;;;;;1.42;100.00;-18065.81;4948216;28;20055;-82
2023/03/28 01:16:19;;;;;;;12.98;3.47;;;;;;;1.41;100.00;-18065.38;4952519;28;20043;-82
2023/03/28 01:18:50;;;;;;;14.50;3.00;;;;;;;1.39;100.00;-18064.97;4947080;28;20506;-82
2023/03/28 01:22:05;;;;;;;8.07;2.63;;;;;;;1.33;100.00;-18063.47;4954245;28;20086;-82
2023/03/28 01:24:45;;;;;;;9.82;2.88;;;;;;;1.33;100.00;-18063.31;4962440;28;20861;-82
2023/03/28 01:27:31;;;;;;;9.18;3.08;;;;;;;1.29;100.00;-18062.22;4962826;28;20129;-82
2023/03/28 01:30:25;;;;;;;12.45;3.53;;;;;;;1.24;100.00;-18060.97;4967243;28;20055;-82
2023/03/28 01:33:28;;;;;;;12.00;3.42;;;;;;;1.30;100.00;-18062.50;4951610;28;20047;-83
2023/03/28 01:36:55;;;;;;;7.30;3.03;;;;;;;1.26;100.00;-18061.38;4952392;28;20090;-83
2023/03/28 01:39:37;;;;;;;9.27;3.15;;;;;;;1.21;100.00;-18060.00;4923759;29;20054;-82
2023/03/28 01:42:36;;;;;;;14.48;3.15;;;;;;;1.21;100.00;-18060.00;4963608;28;20528;-83
2023/03/28 01:45:21;;;;;;;8.05;2.40;;;;;;;1.22;100.00;-18060.28;4956046;28;20054;-84
2023/03/28 01:48:05;;;;;;;9.52;2.53;;;;;;;1.21;100.00;-18060.00;4954277;28;20051;-83
2023/03/28 01:50:55;;;;;;;12.98;3.05;;;;;;;1.18;100.00;-18059.16;4960912;28;20046;-83
2023/03/28 01:53:43;;;;;;;13.10;3.63;;;;;;;1.13;100.00;-18058.06;4985022;28;20395;-83
2023/03/28 01:56:21;;;;;;;7.97;2.67;;;;;;;1.10;100.00;-18057.09;4966224;28;20051;-83
2023/03/28 01:58:53;;;;;;;12.18;3.38;;;;;;;1.01;100.00;-18054.75;4971415;28;20035;-83
2023/03/28 02:01:35;;;;;;;7.70;2.80;;;;;;;1.00;100.00;-18054.47;4972954;28;20043;-83
2023/03/28 02:04:06;;;;;;;7.40;2.50;;;;;;;0.97;100.00;-18053.63;4955242;28;20710;-83
2023/03/28 02:06:34;;;;;;;8.57;3.28;;;;;;;0.99;100.00;-18054.19;4974350;28;20049;-81
2023/03/28 02:09:01;;;;;;;14.35;3.25;;;;;;;0.99;100.00;-18054.03;4963252;28;20055;-82
2023/03/28 02:11:30;;;;;;;14.82;2.72;;;;;;;0.97;100.00;-18053.50;4972723;28;20043;-83
2023/03/28 02:14:01;;;;;;;13.02;3.08;;;;;;;0.98;100.00;-18053.91;4968683;28;20044;-81
2023/03/28 02:16:29;;;;;;;11.77;3.05;;;;;;;1.02;100.00;-18054.88;4958609;28;20101;-82
2023/03/28 02:18:58;;;;;;;11.88;3.75;;;;;;;0.99;100.00;-18054.03;4958958;28;20062;-82
2023/03/28 02:21:36;;;;;;;11.23;2.95;;;;;;;0.88;100.00;-18051.13;4963210;28;20049;-81
2023/03/28 02:24:01;;;;;;;12.57;4.32;;;;;;;0.91;100.00;-18051.97;4973940;28;20045;-82
2023/03/28 02:26:27;;;;;;;7.40;3.20;;;;;;;0.94;100.00;-18052.78;4990777;28;20046;-82
2023/03/28 02:28:55;;;;;;;9.07;2.92;;;;;;;0.83;100.00;-18049.75;4971205;28;20059;-79
2023/03/28 02:31:22;;;;;;;11.65;3.42;;;;;;;0.88;100.00;-18051.13;4958736;28;20422;-82
2023/03/28 02:33:49;;;;;;;10.32;3.40;;;;;;;0.78;100.00;-18048.38;4961426;28;20040;-82
2023/03/28 02:36:36;;;;;;;9.32;3.20;;;;;;;0.74;100.00;-18047.25;4974707;28;20046;-83
2023/03/28 02:39:33;;;;;;;10.57;2.90;;;;;;;0.71;100.00;-18046.44;4957616;28;20495;-80
2023/03/28 02:42:07;;;;;;;13.60;3.30;;;;;;;0.79;100.00;-18048.66;4962147;28;20051;-81
2023/03/28 02:44:57;;;;;;;14.55;4.03;;;;;;;0.80;100.00;-18049.06;4958505;28;20054;-81
2023/03/28 02:47:39;;;;;;;12.05;3.63;;;;;;;0.82;100.00;-18049.59;4968363;28;20126;-82
2023/03/28 02:50:16;;;;;;;11.82;3.72;;;;;;;0.89;100.00;-18051.41;4970398;28;20043;-83
2023/03/28 02:53:02;;;;;;;6.93;2.80;;;;;;;0.84;100.00;-18050.03;4948390;28;20554;-81
2023/03/28 02:55:40;;;;;;;7.43;2.95;;;;;;;0.82;100.00;-18049.47;4955888;28;20160;-82
2023/03/28 02:58:50;;;;;;;10.43;3.83;;;;;;;0.94;100.00;-18052.66;4968705;28;20098;-81
2023/03/28 03:01:16;;;;;;;10.30;3.13;;;;;;;0.93;100.00;-18052.53;4947923;28;20442;-82
2023/03/28 03:03:42;;;;;;;11.25;3.35;;;;;;;0.92;100.00;-18052.09;4963766;28;20042;-78
2023/03/28 03:06:09;;;;;;;9.25;3.70;;;;;;;0.99;100.00;-18054.19;4951325;28;20166;-82
2023/03/28 03:08:34;;;;;;;8.00;2.90;;;;;;;1.05;100.00;-18055.69;4965535;28;20051;-82
2023/03/28 03:11:00;;;;;;;7.63;3.05;;;;;;;1.04;100.00;-18055.56;4954330;28;20051;-81
2023/03/28 03:13:25;;;;;;;13.13;3.63;;;;;;;1.18;100.00;-18059.16;4954374;28;20075;-81
2023/03/28 03:15:54;;;;;;;9.52;3.50;;;;;;;1.19;100.00;-18059.44;4953011;28;20046;-83
2023/03/28 03:18:20;;;;;;;8.70;3.30;;;;;;;1.12;100.00;-18057.63;4954213;28;20043;-80
2023/03/28 03:20:45;;;;;;;13.45;3.88;;;;;;;1.12;100.00;-18057.78;4952771;28;20043;-81
2023/03/28 03:23:11;;;;;;;9.20;3.92;;;;;;;1.16;100.00;-18058.75;4954931;28;21095;-82
2023/03/28 03:25:38;;;;;;;13.13;4.20;;;;;;;1.03;100.00;-18055.16;4951530;28;20059;-81
2023/03/28 03:28:03;;;;;;;12.45;3.53;;;;;;;1.11;100.00;-18057.38;4952446;28;20051;-78
2023/03/28 03:30:29;;;;;;;9.77;3.58;;;;;;;1.08;100.00;-18056.66;4951423;28;20050;-82
2023/03/28 03:32:55;;;;;;;15.65;4.10;;;;;;;1.07;100.00;-18056.25;4954554;28;20047;-83
2023/03/28 03:35:21;;;;;;;16.38;3.60;;;;;;;1.02;100.00;-18054.88;4962451;28;20074;-82
2023/03/28 03:37:46;;;;;;;7.72;2.95;;;;;;;1.02;100.00;-18054.88;4951534;28;20071;-84
2023/03/28 03:40:11;;;;;;;9.70;4.43;;;;;;;0.96;100.00;-18053.34;4953296;28;20047;-83
2023/03/28 03:42:37;;;;;;;12.05;3.70;;;;;;;0.94;100.00;-18052.66;4953053;28;20047;-81
2023/03/28 03:45:03;;;;;;;11.48;3.50;;;;;;;0.92;100.00;-18052.25;4958088;28;20042;-83
2023/03/28 03:47:29;;;;;;;12.48;3.58;;;;;;;0.88;100.00;-18051.13;4953592;28;20163;-83
2023/03/28 03:49:54;;;;;;;13.23;4.35;;;;;;;0.88;100.00;-18051.13;4950609;28;20076;-83
2023/03/28 03:52:20;;;;;;;10.60;3.78;;;;;;;0.89;100.00;-18051.56;4951738;28;20139;-83
2023/03/28 03:54:45;;;;;;;10.30;4.80;;;;;;;0.88;100.00;-18051.28;4948347;28;20051;-82
2023/03/28 03:57:10;;;;;;;11.77;4.18;;;;;;;0.86;100.00;-18050.72;4950708;28;20393;-83
2023/03/28 03:59:36;;;;;;;13.35;5.05;;;;;;;0.89;100.00;-18051.41;4953428;28;20042;-83
2023/03/28 04:02:01;;;;;;;12.93;4.28;;;;;;;0.88;100.00;-18051.13;4949606;28;20054;-83
2023/03/28 04:04:27;;;;;;;11.85;4.93;;;;;;;0.90;100.00;-18051.81;4956244;28;20568;-83
2023/03/28 04:06:52;;;;;;;16.98;5.80;;;;;;;0.97;100.00;-18053.63;4949964;28;20050;-83
2023/03/28 04:09:21;;;;;;;12.48;5.60;;;;;;;0.98;100.00;-18053.75;4951390;28;20567;-80
2023/03/28 04:11:46;;;;;;;11.33;6.27;;;;;;;0.96;100.00;-18053.22;4963622;28;22779;-83
2023/03/28 04:14:12;;;;;;;15.98;6.35;;;;;;;0.86;100.00;-18050.56;4947896;28;20354;-82
2023/03/28 04:16:37;;;;;;;13.57;5.97;;;;;;;0.76;100.00;-18047.94;4958003;28;20071;-82
2023/03/28 04:19:04;;;;;;;18.70;7.20;;;;;;;0.77;100.00;-18048.22;4953553;28;20083;-82
2023/03/28 04:21:31;;;;;;;20.20;7.80;;;;;;;0.71;100.00;-18046.44;4955979;28;20035;-83
2023/03/28 04:24:00;;;;;;;15.30;8.45;;;;;;;0.74;100.00;-18047.41;4948786;28;20659;-82
2023/03/28 04:26:26;;;;;;;13.80;8.10;;;;;;;0.77;100.00;-18048.22;4955951;28;20466;-81
2023/03/28 04:28:52;;;;;;;12.50;7.45;;;;;;;0.73;100.00;-18046.97;4949764;28;20070;-82
2023/03/28 04:31:20;;;;;;;18.95;7.43;;;;;;;0.72;100.00;-18046.69;4952390;28;20050;-82
2023/03/28 04:33:46;;;;;;;17.80;7.40;;;;;;;0.75;100.00;-18047.69;4955555;28;20039;-82
2023/03/28 04:36:11;;;;;;;14.98;8.13;;;;;;;0.76;100.00;-18047.81;4954401;28;20537;-83
2023/03/28 04:38:40;;;;;;;15.48;6.97;;;;;;;0.80;100.00;-18048.91;4948603;28;20047;-82
2023/03/28 04:41:07;;;;;;;17.38;7.40;;;;;;;0.85;100.00;-18050.31;4951654;28;20067;-82
2023/03/28 04:43:32;;;;;;;15.43;6.88;;;;;;;0.85;100.00;-18050.44;4955024;28;20124;-82
2023/03/28 04:45:58;;;;;;;14.77;7.63;;;;;;;0.88;100.00;-18051.13;4953475;28;20091;-83
2023/03/28 04:48:25;;;;;;;18.38;7.85;;;;;;;0.86;100.00;-18050.56;4954839;28;20066;-82
2023/03/28 04:50:51;;;;;;;10.43;7.00;;;;;;;0.89;100.00;-18051.41;4948503;28;20078;-83
2023/03/28 04:53:17;;;;;;;15.90;7.70;;;;;;;0.83;100.00;-18049.75;4951450;28;20042;-82
2023/03/28 04:55:47;;;;;;;16.63;7.95;;;;;;;0.88;100.00;-18051.13;4953856;28;20142;-82
2023/03/28 04:58:14;;;;;;;19.05;8.82;;;;;;;0.90;100.00;-18051.81;4951421;28;20157;-82
2023/03/28 05:00:39;;;;;;;17.10;8.80;;;;;;;0.86;100.00;-18050.56;4945221;28;20043;-82
2023/03/28 05:03:10;;;;;;;16.00;9.80;;;;;;;0.82;100.00;-18049.59;4955218;28;20053;-82
2023/03/28 05:05:35;;;;;;;15.85;7.75;;;;;;;0.81;100.00;-18049.34;4953890;28;20148;-82
2023/03/28 05:08:01;;;;;;;13.95;9.13;;;;;;;0.78;100.00;-18048.38;4955286;28;20534;-82
2023/03/28 05:10:26;;;;;;;19.20;9.35;;;;;;;0.85;100.00;-18050.31;4951900;28;20422;-82
2023/03/28 05:12:52;;;;;;;17.42;9.73;;;;;;;0.76;100.00;-18047.94;4951638;28;20070;-82
2023/03/28 05:15:17;;;;;;;21.20;11.27;;;;;;;0.77;100.00;-18048.22;4953892;28;20097;-82
2023/03/28 05:17:42;;;;;;;16.20;9.85;;;;;;;0.78;100.00;-18048.38;4950765;28;20468;-82
2023/03/28 05:20:09;;;;;;;22.40;10.38;;;;;;;0.83;100.00;-18049.75;4952057;28;20065;-82
2023/03/28 05:22:35;;;;;;;21.70;10.13;;;;;;;0.79;100.00;-18048.78;4950093;28;20035;-83
2023/03/28 05:25:02;;;;;;;20.15;12.05;;;;;;;0.78;100.00;-18048.50;4952147;28;20093;-82
2023/03/28 05:27:27;;;;;;;19.90;10.98;;;;;;;0.74;100.00;-18047.25;4954229;28;20043;-82
2023/03/28 05:29:52;;;;;;;27.65;11.43;;;;;;;0.74;100.00;-18047.25;4951817;28;20083;-83
2023/03/28 05:32:18;;;;;;;20.95;11.98;;;;;;;0.73;100.00;-18046.97;4957125;28;20266;-82
2023/03/28 05:34:43;;;;;;;20.17;12.68;;;;;;;0.70;100.00;-18046.16;4952488;28;20047;-82
2023/03/28 05:37:09;;;;;;;20.27;12.70;;;;;;;0.65;100.00;-18044.91;4951397;28;20046;-82
2023/03/28 05:39:34;;;;;;;22.35;13.25;;;;;;;0.63;100.00;-18044.50;4951136;28;20037;-82
2023/03/28 05:42:00;;;;;;;20.33;12.68;;;;;;;0.64;100.00;-18044.63;4969443;28;20041;-82
2023/03/28 05:44:25;;;;;;;28.00;16.10;;;;;;;0.65;100.00;-18045.03;4951372;28;20503;-82
2023/03/28 05:46:50;;;;;;;23.45;13.35;;;;;;;0.62;100.00;-18044.22;4953385;28;20513;-82
2023/03/28 05:49:16;;;;;;;22.95;14.77;;;;;;;0.65;100.00;-18045.03;4961092;28;20058;-82
2023/03/28 05:51:41;;;;;;;24.25;14.98;;;;;;;0.70;100.00;-18046.28;4957004;28;20087;-82
2023/03/28 05:54:06;;;;;;;28.83;17.00;;;;;;;0.71;100.00;-18046.44;4959543;28;20046;-82
2023/03/28 05:56:34;;;;;;;34.38;17.35;;;;;;;0.78;100.00;-18048.38;4950802;28;20123;-83
2023/03/28 05:59:00;;;;;;;28.55;15.75;;;;;;;0.77;100.00;-18048.22;4950449;28;20122;-82
2023/03/28 06:01:27;;;;;;;25.60;16.38;;;;;;;0.73;100.00;-18046.97;4954423;28;20066;-83
2023/03/28 06:03:53;;;;;;;26.67;14.98;;;;;;;0.68;100.00;-18045.72;4948975;28;20512;-83
2023/03/28 06:06:19;;;;;;;24.58;14.85;;;;;;;0.61;100.00;-18043.94;4951530;28;20043;-83
2023/03/28 06:08:44;;;;;;;22.10;14.18;;;;;;;0.57;100.00;-18042.81;4949264;28;20071;-83
2023/03/28 06:11:10;;;;;;;27.05;15.45;;;;;;;0.70;100.00;-18046.28;4960077;28;20054;-83
2023/03/28 06:13:35;;;;;;;29.13;15.70;;;;;;;0.63;100.00;-18044.50;4963220;28;20050;-82
2023/03/28 06:16:01;;;;;;;26.13;16.45;;;;;;;0.71;100.00;-18046.56;4955786;28;20040;-82
2023/03/28 06:18:27;;;;;;;27.83;16.58;;;;;;;0.77;100.00;-18048.22;4960079;28;20039;-82
2023/03/28 06:20:52;;;;;;;28.77;15.98;;;;;;;0.86;100.00;-18050.56;4958099;28;20106;-84
2023/03/28 06:23:18;;;;;;;27.60;14.95;;;;;;;0.88;100.00;-18051.13;4956666;28;20051;-83
2023/03/28 06:25:43;;;;;;;27.25;15.48;;;;;;;0.95;100.00;-18053.06;4960650;28;20502;-83
2023/03/28 06:28:09;;;;;;;24.90;14.95;;;;;;;0.98;100.00;-18053.91;4952373;28;20094;-83
2023/03/28 06:30:35;;;;;;;22.02;13.38;;;;;;;1.02;100.00;-18055.00;4949860;28;20050;-83
2023/03/28 06:33:00;;;;;;;20.13;12.85;;;;;;;1.09;100.00;-18056.94;4957326;28;20513;-83
2023/03/28 06:35:25;;;;;;;18.17;11.57;;;;;;;1.23;100.00;-18060.53;4957969;28;20070;-83
2023/03/28 06:37:51;;;;;;;19.35;11.45;;;;;;;1.28;100.00;-18062.06;4979888;28;20043;-83
2023/03/28 06:40:17;;;;;;;19.20;10.88;;;;;;;1.35;100.00;-18063.88;4970848;28;20039;-83
2023/03/28 06:42:42;;;;;;;20.38;11.52;;;;;;;1.50;100.00;-18067.88;4971224;28;20388;-83
2023/03/28 06:45:08;;;;;;;21.17;10.48;;;;;;;1.51;100.00;-18068.31;4951518;28;20047;-84
2023/03/28 06:47:34;;;;;;;18.27;10.68;;;;;;;1.63;100.00;-18071.47;4954780;28;20039;-84
2023/03/28 06:49:59;;;;;;;14.65;8.07;;;;;;;1.69;100.00;-18073.16;4953139;28;20521;-84
2023/03/28 06:52:25;;;;;;;15.15;8.98;;;;;;;1.85;100.00;-18077.44;4962799;28;20051;-84
2023/03/28 06:54:50;;;;;;;12.73;7.10;;;;;;;1.86;100.00;-18077.72;4970277;28;20045;-84
2023/03/28 06:57:16;;;;;;;14.75;7.50;;;;;;;1.94;100.00;-18079.94;4955958;28;20041;-84
2023/03/28 06:59:41;;;;;;;15.52;6.57;;;;;;;2.07;100.00;-18083.25;4951669;28;20192;-84
2023/03/28 07:02:10;;;;;;;14.82;7.28;;;;;;;2.11;100.00;-18084.50;4954369;28;20049;-84
2023/03/28 07:04:35;;;;;;;13.68;6.10;;;;;;;2.22;100.00;-18087.41;4958495;28;20055;-84
2023/03/28 07:07:01;;;;;;;18.65;6.93;;;;;;;2.31;100.00;-18089.75;4962537;28;20494;-84
2023/03/28 07:09:26;;;;;;;12.52;7.32;;;;;;;2.35;100.00;-18091.00;4959658;28;20214;-85
2023/03/28 07:11:52;;;;;;;14.98;6.57;;;;;;;2.33;100.00;-18090.44;4972131;28;20042;-84
2023/03/28 07:14:17;;;;;;;15.85;6.43;;;;;;;2.38;100.00;-18091.69;4955674;28;20043;-84
2023/03/28 07:16:43;;;;;;;11.02;5.85;;;;;;;2.46;100.00;-18094.03;4956879;28;20134;-85
2023/03/28 07:19:08;;;;;;;11.48;5.80;;;;;;;2.54;100.00;-18096.09;4952634;28;20082;-85
2023/03/28 07:21:34;;;;;;;12.00;5.15;;;;;;;2.64;100.00;-18098.88;4963847;28;20053;-85
2023/03/28 07:23:59;;;;;;;10.82;5.20;;;;;;;2.82;100.00;-18103.56;4971710;28;20067;-85
2023/03/28 07:26:26;;;;;;;11.55;4.97;;;;;;;2.87;100.00;-18104.97;4973560;28;20453;-85
2023/03/28 07:28:53;;;;;;;9.23;4.93;;;;;;;2.94;100.00;-18106.91;4974333;28;20549;-84
2023/03/28 07:31:20;;;;;;;12.52;4.97;;;;;;;3.09;100.00;-18110.91;4960052;28;20043;-84
2023/03/28 07:33:47;;;;;;;11.88;5.10;;;;;;;3.17;100.00;-18113.25;4958041;28;20522;-84
2023/03/28 07:36:19;;;;;;;10.77;4.10;;;;;;;3.12;100.00;-18111.88;4961738;28;20101;-84
2023/03/28 07:38:44;;;;;;;13.57;4.90;;;;;;;3.28;100.00;-18116.16;4971143;28;20047;-84
2023/03/28 07:41:10;;;;;;;12.25;4.90;;;;;;;3.36;100.00;-18118.38;4977437;28;20384;-84
2023/03/28 07:43:37;;;;;;;15.68;5.25;;;;;;;3.32;100.00;-18117.25;4974221;28;20062;-83
2023/03/28 07:46:06;;;;;;;12.40;4.80;;;;;;;3.30;100.00;-18116.72;4966782;28;20051;-83
2023/03/28 07:48:33;;;;;;;11.50;5.30;;;;;;;3.40;100.00;-18119.34;4958402;28;20380;-83
2023/03/28 07:51:00;;;;;;;11.23;4.45;;;;;;;3.36;100.00;-18118.38;4971479;28;20051;-83
2023/03/28 07:53:26;;;;;;;13.10;5.03;;;;;;;3.57;100.00;-18123.91;4952523;28;20090;-83
2023/03/28 07:55:52;;;;;;;11.35;5.15;;;;;;;3.62;100.00;-18125.28;4955260;28;20415;-83
2023/03/28 07:58:17;;;;;;;11.80;4.78;;;;;;;3.70;100.00;-18127.50;4953833;28;20050;-83
2023/03/28 08:00:44;;;;;;;11.30;4.25;;;;;;;3.80;100.00;-18130.25;4950712;28;20105;-83
2023/03/28 08:03:10;;;;;;;11.77;4.07;;;;;;;3.81;100.00;-18130.38;4951264;28;20059;-83
2023/03/28 08:05:37;;;;;;;10.05;4.30;;;;;;;3.84;100.00;-18131.34;4955541;28;20143;-84
2023/03/28 08:08:04;;;;;;;12.32;4.32;;;;;;;3.86;100.00;-18131.78;4951420;28;20094;-83
2023/03/28 08:10:30;;;;;;;15.02;4.78;;;;;;;3.91;100.00;-18133.00;4958063;28;20058;-83
2023/03/28 08:12:55;;;;;;;19.90;5.03;;;;;;;3.92;100.00;-18133.44;4953249;28;20459;-83
2023/03/28 08:15:20;;;;;;;10.23;3.55;;;;;;;4.09;100.00;-18137.84;4952341;28;20160;-81
2023/03/28 08:17:46;;;;;;;6.90;3.50;;;;;;;4.08;100.00;-18137.72;4969144;28;20051;-81
2023/03/28 08:20:11;;;;;;;9.30;4.60;;;;;;;4.09;100.00;-18138.00;4956014;28;20718;-81
2023/03/28 08:22:37;;;;;;;12.65;4.50;;;;;;;4.24;100.00;-18142.13;4956678;28;20039;-81
2023/03/28 08:25:03;;;;;;;12.68;3.97;;;;;;;4.34;100.00;-18144.63;4957843;28;20098;-81
2023/03/28 08:27:29;;;;;;;14.02;3.88;;;;;;;4.42;100.00;-18146.81;4954828;28;20411;-81
2023/03/28 08:29:54;;;;;;;9.60;3.33;;;;;;;4.46;100.00;-18147.94;4952376;28;20051;-81
2023/03/28 08:32:20;;;;;;;9.38;3.63;;;;;;;4.42;100.00;-18146.81;4962027;28;20122;-81
2023/03/28 08:34:45;;;;;;;5.95;3.03;;;;;;;4.45;100.00;-18147.66;4961283;28;20046;-81
2023/03/28 08:37:11;;;;;;;11.02;3.38;;;;;;;4.51;100.00;-18149.31;4953586;28;20155;-81
2023/03/28 08:39:39;;;;;;;8.48;3.42;;;;;;;4.61;100.00;-18152.06;4953933;28;20039;-82
2023/03/28 08:42:17;;;;;;;6.35;3.15;;;;;;;4.67;100.00;-18153.72;4953029;28;20122;-81
2023/03/28 08:45:02;;;;;;;7.47;2.85;;;;;;;4.70;100.00;-18154.56;4964794;28;20093;-81
2023/03/28 08:47:34;;;;;;;7.18;2.92;;;;;;;4.66;100.00;-18153.31;4965925;28;20047;-81
2023/03/28 08:50:03;;;;;;;8.07;2.65;;;;;;;4.80;100.00;-18157.03;4951498;28;20054;-81
2023/03/28 08:52:29;;;;;;;6.68;2.20;;;;;;;4.81;100.00;-18157.31;4950645;28;20041;-81
2023/03/28 08:55:20;;;;;;;10.32;2.60;;;;;;;4.92;100.00;-18160.50;4950449;28;20106;-81
2023/03/28 08:57:50;;;;;;;7.43;2.38;;;;;;;5.08;100.00;-18164.63;4949160;28;20039;-81
2023/03/28 09:00:36;;;;;;;6.80;2.28;;;;;;;5.18;100.00;-18167.53;4947659;28;20113;-81
2023/03/28 09:03:08;;;;;;;6.05;2.33;;;;;;;5.09;100.00;-18165.06;4953562;28;20075;-81
2023/03/28 09:05:50;;;;;;;5.53;2.03;;;;;;;5.13;100.00;-18166.16;4953359;28;20066;-81
2023/03/28 09:08:34;;;;;;;4.93;1.98;;;;;;;5.17;100.00;-18167.13;4984782;28;20046;-81
2023/03/28 09:11:07;;;;;;;8.60;2.70;;;;;;;5.24;100.00;-18169.06;4949904;28;20141;-81
2023/03/28 09:14:23;;;;;;;6.25;2.92;;;;;;;5.27;100.00;-18169.75;4953185;28;20039;-81
2023/03/28 09:17:40;;;;;;;6.63;2.50;;;;;;;5.39;100.00;-18173.06;4960059;28;20066;-81
2023/03/28 09:20:22;;;;;;;6.55;2.97;;;;;;;5.44;100.00;-18174.44;4948796;28;20047;-81
2023/03/28 09:23:09;;;;;;;7.53;2.45;;;;;;;5.38;100.00;-18172.78;4959176;28;20130;-81
2023/03/28 09:25:37;;;;;;;9.45;2.58;;;;;;;5.35;100.00;-18172.09;4951279;28;20071;-81
2023/03/28 09:28:43;;;;;;;4.15;2.30;;;;;;;5.53;100.00;-18176.91;4958533;28;20133;-81
2023/03/28 09:31:11;;;;;;;4.30;1.77;;;;;;;5.60;100.00;-18178.72;4949197;28;20089;-81
2023/03/28 09:33:41;;;;;;;7.57;1.90;;;;;;;5.71;100.00;-18181.63;4970621;28;20117;-81
2023/03/28 09:36:17;;;;;;;6.20;2.20;;;;;;;5.69;100.00;-18181.06;4952701;28;20067;-81
2023/03/28 09:38:59;;;;;;;8.60;2.97;;;;;;;5.70;100.00;-18181.47;4951019;28;20047;-82
2023/03/28 09:41:34;;;;;;;7.63;3.17;;;;;;;5.71;100.00;-18181.63;4947662;28;20051;-81
2023/03/28 09:44:03;;;;;;;7.70;3.03;;;;;;;5.80;100.00;-18184.09;4968664;28;20130;-81
2023/03/28 09:46:39;;;;;;;7.40;2.40;;;;;;;5.90;100.00;-18186.84;4949359;28;20047;-81
2023/03/28 09:49:05;;;;;;;7.65;3.45;;;;;;;5.73;100.00;-18182.31;4952611;28;20066;-82
2023/03/28 09:51:31;;;;;;;12.95;2.33;;;;;;;5.69;100.00;-18181.06;4958919;28;20047;-81
2023/03/28 09:53:56;;;;;;;6.63;2.65;;;;;;;5.75;100.00;-18182.72;4957768;28;20051;-81
2023/03/28 09:56:30;;;;;;;8.77;3.20;;;;;;;5.82;100.00;-18184.66;4953439;28;20054;-81
2023/03/28 09:59:02;;;;;;;7.45;3.25;;;;;;;5.86;100.00;-18185.88;4953569;28;20146;-81
2023/03/28 10:01:49;;;;;;;6.18;1.77;;;;;;;5.97;100.00;-18188.66;4954134;28;20419;-82
2023/03/28 10:04:17;;;;;;;8.18;2.17;;;;;;;6.09;100.00;-18192.09;4953667;28;20043;-82
2023/03/28 10:06:44;;;;;;;6.78;2.08;;;;;;;6.32;100.00;-18198.16;4952770;28;20066;-82
2023/03/28 10:09:20;;;;;;;5.60;2.42;;;;;;;6.29;100.00;-18197.34;4956702;28;20039;-82
2023/03/28 10:11:58;;;;;;;4.07;1.50;;;;;;;6.13;100.00;-18192.94;4956862;28;20080;-82
2023/03/28 10:14:28;;;;;;;5.38;1.02;;;;;;;6.17;100.00;-18194.03;4970082;28;20495;-82
2023/03/28 10:16:54;;;;;;;5.85;1.50;;;;;;;6.41;100.00;-18200.50;4955505;28;20039;-82
2023/03/28 10:19:23;;;;;;;5.28;1.50;;;;;;;6.43;100.00;-18201.06;4956507;28;20043;-82
2023/03/28 10:21:49;;;;;;;8.15;2.25;;;;;;;6.43;100.00;-18201.19;4950146;28;20042;-82
2023/03/28 10:24:19;;;;;;;6.90;2.10;;;;;;;6.33;100.00;-18198.59;4972685;28;20035;-82
2023/03/28 10:26:44;;;;;;;6.07;2.08;;;;;;;6.30;100.00;-18197.75;4952693;28;20055;-82
2023/03/28 10:29:12;;;;;;;8.25;2.10;;;;;;;6.32;100.00;-18198.16;4953148;28;20047;-82
2023/03/28 10:31:39;;;;;;;5.37;1.80;;;;;;;6.08;100.00;-18191.69;4947859;28;20055;-82
2023/03/28 10:34:04;;;;;;;7.10;1.80;;;;;;;6.08;100.00;-18191.69;4949734;28;20050;-82
2023/03/28 10:36:42;;;;;;;5.45;1.50;;;;;;;6.07;100.00;-18191.41;4947986;28;20040;-82
2023/03/28 10:39:25;;;;;;;7.72;1.80;;;;;;;6.14;100.00;-18193.19;4949793;28;20054;-84
2023/03/28 10:42:01;;;;;;;8.43;2.20;;;;;;;6.19;100.00;-18194.59;4953020;28;20079;-82
2023/03/28 10:44:29;;;;;;;10.98;3.40;;;;;;;6.35;100.00;-18199.00;4955541;28;20054;-81
2023/03/28 10:47:00;;;;;;;7.53;2.35;;;;;;;6.34;100.00;-18198.72;4947308;28;20490;-82
2023/03/28 10:49:28;;;;;;;8.55;2.70;;;;;;;6.38;100.00;-18199.69;4949681;28;20044;-82
2023/03/28 10:51:54;;;;;;;6.03;2.60;;;;;;;6.49;100.00;-18202.84;4950136;28;20059;-82
2023/03/28 10:54:40;;;;;;;8.02;2.20;;;;;;;6.46;100.00;-18202.03;4957661;28;20049;-82
2023/03/28 10:57:14;;;;;;;6.93;1.90;;;;;;;6.43;100.00;-18201.19;4964607;28;20600;-82
2023/03/28 11:00:11;;;;;;;11.25;2.30;;;;;;;6.72;100.00;-18208.91;4952561;28;20054;-81
2023/03/28 11:03:14;;;;;;;6.00;2.10;;;;;;;6.90;100.00;-18213.88;4944306;28;20048;-81
2023/03/28 11:05:40;;;;;;;7.53;2.30;;;;;;;6.77;100.00;-18210.44;4941511;28;20047;-82
2023/03/28 11:08:34;;;;;;;6.32;2.28;;;;;;;6.72;100.00;-18208.91;4953048;28;20054;-82
2023/03/28 11:11:13;;;;;;;10.30;2.53;;;;;;;6.72;100.00;-18208.91;4956907;28;20055;-82
2023/03/28 11:14:16;;;;;;;9.63;1.90;;;;;;;6.83;100.00;-18211.94;4968933;28;20122;-82
2023/03/28 11:17:11;;;;;;;5.90;2.33;;;;;;;6.70;100.00;-18208.38;4960149;28;20142;-82
2023/03/28 11:19:55;;;;;;;6.80;2.35;;;;;;;6.61;100.00;-18205.88;4961016;28;20039;-82
2023/03/28 11:22:43;;;;;;;7.78;2.50;;;;;;;6.64;100.00;-18206.84;4974838;28;20051;-82
2023/03/28 11:25:29;;;;;;;5.63;2.10;;;;;;;6.66;100.00;-18207.28;4957120;28;20054;-82
2023/03/28 11:28:06;;;;;;;9.20;2.15;;;;;;;6.68;100.00;-18207.81;4956643;28;20533;-82
2023/03/28 11:30:32;;;;;;;9.57;2.40;;;;;;;6.69;100.00;-18208.09;4953145;28;20364;-82
2023/03/28 11:33:15;;;;;;;6.28;2.50;;;;;;;6.86;100.00;-18212.78;4959208;28;20046;-82
2023/03/28 11:35:50;;;;;;;7.38;2.28;;;;;;;6.88;100.00;-18213.34;4952447;28;20097;-82
2023/03/28 11:38:23;;;;;;;8.05;2.22;;;;;;;6.99;100.00;-18216.38;4947727;28;20091;-82